createdAt,value
2022-10-08T00:01:54.726Z,10.90
2022-10-08T00:04:56.443Z,6.30
2022-10-08T00:07:58.115Z,9.10
2022-10-08T00:11:20.509Z,7.57
2022-10-08T00:14:23.448Z,10.57
2022-10-08T00:17:25.114Z,14.73
2022-10-08T00:20:27.349Z,14.38
2022-10-08T00:23:29.059Z,7.03
2022-10-08T00:26:33.533Z,9.90
2022-10-08T00:29:35.795Z,11.27
2022-10-08T00:32:37.788Z,8.95
2022-10-08T00:35:40.561Z,12.50
2022-10-08T00:38:45.320Z,10.70
2022-10-08T00:41:51.764Z,7.20
2022-10-08T00:44:55.933Z,11.25
2022-10-08T00:47:58.607Z,12.55
2022-10-08T00:51:00.845Z,11.23
2022-10-08T00:54:04.234Z,11.68
2022-10-08T00:57:07.642Z,15.00
2022-10-08T01:00:20.457Z,12.18
2022-10-08T01:03:22.248Z,7.33
2022-10-08T01:06:30.039Z,8.50
2022-10-08T01:09:38.766Z,6.63
2022-10-08T01:13:12.611Z,9.18
2022-10-08T01:16:38.965Z,11.15
2022-10-08T01:19:55.865Z,9.48
2022-10-08T01:23:27.287Z,18.88
2022-10-08T01:26:55.570Z,10.93
2022-10-08T01:30:02.358Z,11.48
2022-10-08T01:33:12.530Z,11.88
2022-10-08T01:36:16.966Z,10.70
2022-10-08T01:39:25.715Z,8.45
2022-10-08T01:42:29.083Z,6.68
2022-10-08T01:45:38.338Z,6.43
2022-10-08T01:48:42.460Z,10.25
2022-10-08T01:52:21.724Z,11.70
2022-10-08T01:55:48.038Z,14.23
2022-10-08T01:59:08.987Z,7.43
2022-10-08T02:02:21.335Z,11.70
2022-10-08T02:05:36.150Z,7.72
2022-10-08T02:08:37.898Z,8.05
2022-10-08T02:11:40.218Z,6.22
2022-10-08T02:14:47.356Z,7.45
2022-10-08T02:18:33.155Z,11.35
2022-10-08T02:21:39.681Z,13.77
2022-10-08T02:24:50.842Z,8.15
2022-10-08T02:28:16.906Z,15.57
2022-10-08T02:31:45.891Z,10.57
2022-10-08T02:34:57.785Z,8.95
2022-10-08T02:38:33.161Z,7.80
2022-10-08T02:41:41.047Z,9.10
2022-10-08T02:44:49.771Z,10.38
2022-10-08T02:47:57.104Z,9.63
2022-10-08T02:51:06.159Z,11.60
2022-10-08T02:54:09.020Z,8.93
2022-10-08T02:57:13.899Z,8.70
2022-10-08T03:00:15.716Z,9.50
2022-10-08T03:03:27.067Z,14.63
2022-10-08T03:06:30.157Z,6.57
2022-10-08T03:09:37.748Z,6.82
2022-10-08T03:12:40.007Z,8.55
2022-10-08T03:15:42.596Z,9.73
2022-10-08T03:18:46.421Z,11.57
2022-10-08T03:21:56.745Z,9.07
2022-10-08T03:25:02.339Z,8.40
2022-10-08T03:28:04.212Z,10.25
2022-10-08T03:31:06.617Z,7.25
2022-10-08T03:34:09.383Z,8.80
2022-10-08T03:37:11.768Z,6.37
2022-10-08T03:40:13.546Z,6.30
2022-10-08T03:43:15.591Z,7.90
2022-10-08T03:46:20.209Z,8.77
2022-10-08T03:49:22.241Z,9.48
2022-10-08T03:52:24.203Z,8.32
2022-10-08T03:55:26.033Z,7.65
2022-10-08T03:58:27.759Z,8.60
2022-10-08T04:01:30.538Z,8.85
2022-10-08T04:04:32.529Z,7.90
2022-10-08T04:07:34.616Z,9.55
2022-10-08T04:10:47.772Z,9.55
2022-10-08T04:13:49.814Z,7.90
2022-10-08T04:16:53.356Z,7.80
2022-10-08T04:19:57.249Z,7.40
2022-10-08T04:26:18.530Z,11.52
2022-10-08T04:29:20.311Z,7.93
2022-10-08T04:32:22.039Z,7.00
2022-10-08T04:35:24.482Z,5.22
2022-10-08T04:38:26.599Z,8.38
2022-10-08T04:41:28.625Z,7.38
2022-10-08T04:44:30.662Z,10.13
2022-10-08T04:47:32.458Z,6.53
2022-10-08T04:50:35.006Z,8.20
2022-10-08T04:53:36.984Z,9.77
2022-10-08T04:56:38.930Z,7.40
2022-10-08T05:02:57.440Z,9.43
2022-10-08T05:05:59.288Z,6.30
2022-10-08T05:09:05.022Z,11.90
2022-10-08T05:12:09.221Z,12.52
2022-10-08T05:15:11.244Z,10.15
2022-10-08T05:18:13.185Z,11.73
2022-10-08T05:21:17.981Z,8.55
2022-10-08T05:24:19.667Z,9.35
2022-10-08T05:27:21.455Z,5.53
2022-10-08T05:30:23.268Z,10.93
2022-10-08T05:33:25.379Z,9.82
2022-10-08T05:36:32.081Z,10.05
2022-10-08T05:39:33.843Z,14.45
2022-10-08T05:42:35.677Z,10.40
2022-10-08T05:45:37.338Z,11.63
2022-10-08T05:48:40.077Z,12.35
2022-10-08T05:51:41.781Z,12.00
2022-10-08T05:54:43.519Z,13.68
2022-10-08T05:57:45.211Z,10.93
2022-10-08T06:00:57.596Z,9.07
2022-10-08T06:04:08.057Z,10.85
2022-10-08T06:07:11.857Z,9.20
2022-10-08T06:10:22.055Z,12.68
2022-10-08T06:13:24.189Z,12.70
2022-10-08T06:16:27.365Z,13.95
2022-10-08T06:19:29.175Z,14.15
2022-10-08T06:22:36.826Z,9.65
2022-10-08T06:25:44.571Z,9.57
2022-10-08T06:28:46.545Z,13.07
2022-10-08T06:31:52.538Z,9.52
2022-10-08T06:34:54.355Z,11.77
2022-10-08T06:37:56.102Z,10.25
2022-10-08T06:40:58.480Z,9.00
2022-10-08T06:44:00.813Z,16.15
2022-10-08T06:47:02.614Z,17.17
2022-10-08T06:50:04.955Z,12.80
2022-10-08T06:53:11.168Z,18.45
2022-10-08T06:56:15.490Z,14.07
2022-10-08T06:59:17.367Z,19.60
2022-10-08T07:02:19.116Z,10.50
2022-10-08T07:05:20.874Z,17.25
2022-10-08T07:08:23.135Z,11.27
2022-10-08T07:11:26.714Z,14.85
2022-10-08T07:14:28.444Z,13.55
2022-10-08T07:17:39.375Z,14.63
2022-10-08T07:20:41.274Z,16.00
2022-10-08T07:23:43.425Z,13.32
2022-10-08T07:26:45.106Z,18.67
2022-10-08T07:29:46.956Z,10.40
2022-10-08T07:32:51.898Z,12.02
2022-10-08T07:35:53.964Z,16.00
2022-10-08T07:39:01.336Z,11.27
2022-10-08T07:42:06.974Z,14.05
2022-10-08T07:45:08.986Z,16.33
2022-10-08T07:48:11.188Z,15.32
2022-10-08T07:51:16.080Z,12.85
2022-10-08T07:54:19.840Z,14.52
2022-10-08T07:57:21.501Z,14.60
2022-10-08T08:00:26.165Z,11.95
2022-10-08T08:03:28.260Z,12.95
2022-10-08T08:06:33.242Z,17.33
2022-10-08T08:09:35.421Z,9.82
2022-10-08T08:12:37.176Z,14.02
2022-10-08T08:15:39.072Z,10.60
2022-10-08T08:18:44.376Z,13.07
2022-10-08T08:21:46.252Z,12.73
2022-10-08T08:24:48.187Z,11.88
2022-10-08T08:27:49.857Z,11.27
2022-10-08T08:30:51.830Z,8.05
2022-10-08T08:33:56.239Z,7.75
2022-10-08T08:36:59.910Z,11.20
2022-10-08T08:40:01.823Z,14.18
2022-10-08T08:43:03.542Z,14.13
2022-10-08T08:46:06.014Z,13.23
2022-10-08T08:49:16.451Z,13.23
2022-10-08T08:52:22.755Z,7.78
2022-10-08T08:55:37.766Z,15.65
2022-10-08T08:58:46.979Z,9.00
2022-10-08T09:01:49.528Z,10.93
2022-10-08T09:04:57.251Z,13.10
2022-10-08T09:08:14.414Z,12.98
2022-10-08T09:11:19.677Z,10.00
2022-10-08T09:14:42.275Z,13.95
2022-10-08T09:17:46.046Z,9.02
2022-10-08T09:20:48.009Z,8.10
2022-10-08T09:23:49.714Z,9.88
2022-10-08T09:26:52.676Z,10.55
2022-10-08T09:29:54.642Z,7.53
2022-10-08T09:33:21.631Z,9.40
2022-10-08T09:36:42.745Z,8.68
2022-10-08T09:40:14.013Z,7.38
2022-10-08T09:43:18.595Z,9.20
2022-10-08T09:46:31.696Z,8.07
2022-10-08T09:49:35.357Z,8.75
2022-10-08T09:52:40.462Z,9.52
2022-10-08T09:55:52.097Z,10.07
2022-10-08T09:59:03.073Z,9.77
2022-10-08T10:02:28.036Z,7.25
2022-10-08T10:05:34.945Z,6.05
2022-10-08T10:08:45.857Z,9.98
2022-10-08T10:11:54.601Z,6.38
2022-10-08T10:15:15.846Z,10.95
2022-10-08T10:18:31.665Z,8.65
2022-10-08T10:21:40.008Z,9.35
2022-10-08T10:25:01.351Z,7.80
2022-10-08T10:28:26.968Z,10.27
2022-10-08T10:31:43.263Z,5.50
2022-10-08T10:34:58.295Z,8.48
2022-10-08T10:38:27.870Z,6.30
2022-10-08T10:42:13.746Z,6.93
2022-10-08T10:45:37.758Z,3.90
2022-10-08T10:48:39.409Z,5.85
2022-10-08T10:51:57.465Z,7.10
2022-10-08T10:55:12.884Z,3.78
2022-10-08T10:58:26.578Z,5.22
2022-10-08T11:05:01.844Z,5.47
2022-10-08T11:08:15.560Z,5.88
2022-10-08T11:11:42.573Z,4.07
2022-10-08T11:15:21.965Z,3.70
2022-10-08T11:18:42.518Z,5.25
2022-10-08T11:22:18.425Z,8.30
2022-10-08T11:26:09.932Z,7.38
2022-10-08T11:29:37.052Z,8.18
2022-10-08T11:32:41.050Z,7.05
2022-10-08T11:36:06.016Z,6.38
2022-10-08T11:39:21.672Z,3.05
2022-10-08T11:42:42.960Z,5.93
2022-10-08T11:45:49.723Z,9.82
2022-10-08T11:48:51.491Z,5.78
2022-10-08T11:51:54.120Z,5.43
2022-10-08T11:54:57.793Z,4.73
2022-10-08T11:58:08.421Z,7.50
2022-10-08T12:01:11.188Z,4.35
2022-10-08T12:04:22.238Z,6.70
2022-10-08T12:07:26.833Z,3.75
2022-10-08T12:10:38.838Z,4.95
2022-10-08T12:13:40.554Z,3.13
2022-10-08T12:16:48.420Z,3.22
2022-10-08T12:20:24.267Z,8.40
2022-10-08T12:23:30.045Z,5.55
2022-10-08T12:26:31.712Z,9.90
2022-10-08T12:29:59.096Z,8.80
2022-10-08T12:33:00.875Z,8.43
2022-10-08T12:36:20.120Z,4.78
2022-10-08T12:39:38.094Z,4.35
2022-10-08T12:42:41.227Z,6.97
2022-10-08T12:46:10.874Z,3.17
2022-10-08T12:49:38.644Z,4.32
2022-10-08T12:52:40.447Z,5.32
2022-10-08T12:55:51.734Z,5.88
2022-10-08T12:58:56.705Z,4.10
2022-10-08T13:01:59.191Z,4.18
2022-10-08T13:05:00.965Z,4.90
2022-10-08T13:08:35.100Z,8.32
2022-10-08T13:14:40.083Z,5.25
2022-10-08T13:17:41.967Z,5.57
2022-10-08T13:20:57.714Z,7.20
2022-10-08T13:24:14.724Z,6.32
2022-10-08T13:27:32.512Z,6.07
2022-10-08T13:30:34.372Z,5.40
2022-10-08T13:33:36.350Z,7.10
2022-10-08T13:36:38.191Z,5.40
2022-10-08T13:39:53.520Z,5.38
2022-10-08T13:42:56.939Z,4.72
2022-10-08T13:49:00.328Z,5.95
2022-10-08T13:52:02.957Z,4.68
2022-10-08T13:55:10.773Z,4.13
2022-10-08T13:58:15.034Z,6.78
2022-10-08T14:01:16.771Z,3.55
2022-10-08T14:04:19.052Z,8.27
2022-10-08T14:07:26.641Z,7.07
2022-10-08T14:10:28.818Z,6.53
2022-10-08T14:13:30.920Z,3.05
2022-10-08T14:16:32.658Z,5.30
2022-10-08T14:19:34.531Z,7.43
2022-10-08T14:22:39.875Z,2.63
2022-10-08T14:25:41.674Z,4.22
2022-10-08T14:28:43.420Z,4.38
2022-10-08T14:31:45.217Z,3.17
2022-10-08T14:34:47.189Z,4.40
2022-10-08T14:37:49.427Z,3.67
2022-10-08T14:40:51.504Z,3.57
2022-10-08T14:43:53.235Z,6.50
2022-10-08T14:46:55.022Z,4.82
2022-10-08T14:49:57.054Z,4.43
2022-10-08T14:52:58.719Z,4.30
2022-10-08T14:56:11.935Z,4.53
2022-10-08T14:59:14.434Z,4.10
2022-10-08T15:02:16.274Z,6.05
2022-10-08T15:05:18.112Z,5.55
2022-10-08T15:08:20.679Z,3.95
2022-10-08T15:11:22.389Z,3.07
2022-10-08T15:14:38.411Z,3.70
2022-10-08T15:17:40.540Z,6.68
2022-10-08T15:20:42.374Z,6.45
2022-10-08T15:23:44.417Z,6.05
2022-10-08T15:26:46.161Z,5.28
2022-10-08T15:29:47.829Z,5.70
2022-10-08T15:32:49.816Z,3.88
2022-10-08T15:35:51.851Z,3.22
2022-10-08T15:39:02.185Z,2.78
2022-10-08T15:42:04.201Z,2.35
2022-10-08T15:45:06.580Z,8.75
2022-10-08T15:48:11.570Z,28.83
2022-10-08T15:51:15.065Z,19.40
2022-10-08T15:57:19.093Z,4.35
2022-10-08T16:00:22.524Z,7.85
2022-10-08T16:06:33.290Z,5.70
2022-10-08T16:09:35.554Z,5.30
2022-10-08T16:12:37.260Z,2.95
2022-10-08T16:15:39.544Z,3.55
2022-10-08T16:18:41.288Z,4.45
2022-10-08T16:21:44.310Z,4.53
2022-10-08T16:24:46.140Z,3.53
2022-10-08T16:27:48.389Z,5.07
2022-10-08T16:30:50.321Z,3.47
2022-10-08T16:33:59.833Z,3.05
2022-10-08T16:37:02.111Z,3.80
2022-10-08T16:40:04.259Z,5.03
2022-10-08T16:43:06.117Z,4.70
2022-10-08T16:46:19.552Z,8.35
2022-10-08T16:49:29.012Z,9.38
2022-10-08T16:52:30.770Z,9.70
2022-10-08T16:55:38.072Z,6.05
2022-10-08T16:58:44.481Z,4.43
2022-10-08T17:05:04.859Z,5.57
2022-10-08T17:08:12.719Z,6.38
2022-10-08T17:11:18.539Z,6.05
2022-10-08T17:14:20.339Z,6.60
2022-10-08T17:17:32.725Z,7.80
2022-10-08T17:20:34.542Z,7.63
2022-10-08T17:23:38.303Z,7.50
2022-10-08T17:26:41.816Z,4.97
2022-10-08T17:32:45.655Z,6.45
2022-10-08T17:35:59.271Z,8.23
2022-10-08T17:39:03.468Z,7.07
2022-10-08T17:42:07.323Z,11.55
2022-10-08T17:45:09.525Z,10.80
2022-10-08T17:48:11.460Z,17.73
2022-10-08T17:51:16.237Z,13.40
2022-10-08T17:54:19.891Z,15.10
2022-10-08T17:57:21.601Z,14.02
2022-10-08T18:00:25.678Z,15.43
2022-10-08T18:03:27.386Z,9.05
2022-10-08T18:06:31.070Z,11.25
2022-10-08T18:09:33.312Z,18.08
2022-10-08T18:12:35.838Z,16.05
2022-10-08T18:15:37.832Z,26.00
2022-10-08T18:18:40.339Z,25.83
2022-10-08T18:21:42.357Z,11.38
2022-10-08T18:24:44.179Z,11.75
2022-10-08T18:27:46.031Z,8.27
2022-10-08T18:30:48.131Z,7.30
2022-10-08T18:33:54.090Z,6.65
2022-10-08T18:36:55.894Z,6.47
2022-10-08T18:39:57.791Z,10.32
2022-10-08T18:43:02.303Z,9.98
2022-10-08T18:46:05.124Z,10.80
2022-10-08T18:49:07.316Z,12.98
2022-10-08T18:52:09.121Z,11.95
2022-10-08T18:55:10.861Z,7.88
2022-10-08T18:58:12.752Z,10.63
2022-10-08T19:01:26.551Z,13.18
2022-10-08T19:04:28.343Z,12.48
2022-10-08T19:07:30.037Z,9.05
2022-10-08T19:10:31.987Z,7.85
2022-10-08T19:13:34.231Z,6.30
2022-10-08T19:16:37.689Z,8.10
2022-10-08T19:22:41.149Z,6.60
2022-10-08T19:25:42.999Z,3.80
2022-10-08T19:28:47.083Z,7.35
2022-10-08T19:31:50.346Z,9.43
2022-10-08T19:34:52.215Z,6.80
2022-10-08T19:37:53.887Z,8.15
2022-10-08T19:40:55.623Z,7.32
2022-10-08T19:43:59.301Z,6.60
2022-10-08T19:47:02.310Z,5.63
2022-10-08T19:50:06.432Z,8.00
2022-10-08T19:53:08.285Z,8.07
2022-10-08T19:56:14.805Z,6.30
2022-10-08T19:59:17.847Z,6.57
2022-10-08T20:02:19.692Z,8.75
2022-10-08T20:05:21.496Z,7.07
2022-10-08T20:08:23.323Z,7.63
2022-10-08T20:11:25.602Z,7.93
2022-10-08T20:14:28.071Z,11.30
2022-10-08T20:17:30.515Z,11.35
2022-10-08T20:20:33.718Z,9.55
2022-10-08T20:26:39.820Z,8.75
2022-10-08T20:29:41.694Z,16.67
2022-10-08T20:32:43.360Z,12.75
2022-10-08T20:35:45.023Z,9.30
2022-10-08T20:38:47.055Z,14.52
2022-10-08T20:41:49.436Z,5.55
2022-10-08T20:44:51.350Z,4.97
2022-10-08T20:47:53.036Z,8.60
2022-10-08T20:50:54.987Z,9.98
2022-10-08T20:53:59.445Z,7.97
2022-10-08T20:57:01.479Z,7.30
2022-10-08T21:00:04.516Z,8.52
2022-10-08T21:03:06.448Z,7.53
2022-10-08T21:06:08.504Z,5.60
2022-10-08T21:09:11.253Z,4.88
2022-10-08T21:12:12.926Z,6.82
2022-10-08T21:15:15.252Z,8.45
2022-10-08T21:18:16.924Z,7.18
2022-10-08T21:21:20.084Z,6.70
2022-10-08T21:24:21.902Z,5.53
2022-10-08T21:27:23.575Z,8.10
2022-10-08T21:30:25.284Z,11.40
2022-10-08T21:33:27.202Z,13.95
2022-10-08T21:36:31.423Z,24.33
2022-10-08T21:39:33.349Z,11.52
2022-10-08T21:42:35.160Z,12.43
2022-10-08T21:45:36.870Z,7.90
2022-10-08T21:48:38.966Z,9.90
2022-10-08T21:51:41.067Z,10.00
2022-10-08T21:54:43.309Z,7.50
2022-10-08T21:57:45.002Z,8.10
2022-10-08T22:00:47.027Z,45.00
2022-10-08T22:03:51.900Z,73.88
2022-10-08T22:06:58.472Z,53.25
2022-10-08T22:10:12.205Z,26.50
2022-10-08T22:16:17.948Z,21.88
2022-10-08T22:19:20.785Z,17.10
2022-10-08T22:22:22.622Z,9.35
2022-10-08T22:25:24.680Z,15.60
2022-10-08T22:28:27.221Z,11.30
2022-10-08T22:31:29.908Z,9.73
2022-10-08T22:34:31.635Z,17.13
2022-10-08T22:37:33.335Z,12.57
2022-10-08T22:40:35.314Z,16.20
2022-10-08T22:43:38.436Z,15.38
2022-10-08T22:46:40.735Z,10.70
2022-10-08T22:49:42.507Z,10.65
2022-10-08T22:52:49.760Z,11.05
2022-10-08T22:55:51.839Z,10.02
2022-10-08T22:58:57.714Z,13.60
2022-10-08T23:02:00.001Z,16.30
2022-10-08T23:05:02.392Z,15.07
2022-10-08T23:08:04.117Z,9.80
2022-10-08T23:11:06.271Z,13.23
2022-10-08T23:14:11.260Z,25.50
2022-10-08T23:17:15.182Z,18.20
2022-10-08T23:20:17.041Z,22.45
2022-10-08T23:23:18.741Z,12.45
2022-10-08T23:26:30.198Z,10.20
2022-10-08T23:29:32.253Z,9.00
2022-10-08T23:32:34.263Z,9.18
2022-10-08T23:35:35.946Z,8.10
2022-10-08T23:38:37.794Z,9.55
2022-10-08T23:41:40.081Z,11.57
2022-10-08T23:44:41.881Z,10.07
2022-10-08T23:47:44.269Z,11.52
2022-10-08T23:50:50.065Z,18.67
2022-10-08T23:53:52.850Z,17.42
2022-10-08T23:56:54.814Z,12.90
2022-10-08T23:59:56.475Z,9.02
